sensor_id;sensor_type;location;lat;lon;timestamp;pressure;altitude;pressure_sealevel;temperature;humidity
66176;BME280;52977;44.816;20.538;2024-03-02T00:00:21;99019.34;;;10.91;88.64
66176;BME280;52977;44.816;20.538;2024-03-02T00:02:49;99034.03;;;10.99;87.82
66176;BME280;52977;44.816;20.538;2024-03-02T00:05:19;99039.16;;;11.13;87.73
66176;BME280;52977;44.816;20.538;2024-03-02T00:07:52;99031.53;;;11.18;86.73
66176;BME280;52977;44.816;20.538;2024-03-02T00:10:20;99028.34;;;11.16;87.09
66176;BME280;52977;44.816;20.538;2024-03-02T00:12:51;99036.22;;;11.18;87.00
66176;BME280;52977;44.816;20.538;2024-03-02T00:18:06;99043.81;;;11.24;86.89
66176;BME280;52977;44.816;20.538;2024-03-02T00:20:32;99042.25;;;11.23;86.74
66176;BME280;52977;44.816;20.538;2024-03-02T00:23:06;99037.44;;;11.20;87.21
66176;BME280;52977;44.816;20.538;2024-03-02T00:25:43;99039.38;;;11.20;86.78
66176;BME280;52977;44.816;20.538;2024-03-02T00:28:27;99043.72;;;11.08;87.18
66176;BME280;52977;44.816;20.538;2024-03-02T00:31:07;99035.75;;;11.16;87.34
66176;BME280;52977;44.816;20.538;2024-03-02T00:33:39;99040.63;;;10.98;88.51
66176;BME280;52977;44.816;20.538;2024-03-02T00:36:07;99034.47;;;11.01;88.14
66176;BME280;52977;44.816;20.538;2024-03-02T00:38:34;99034.81;;;10.99;88.59
66176;BME280;52977;44.816;20.538;2024-03-02T00:41:24;99037.22;;;11.01;88.23
66176;BME280;52977;44.816;20.538;2024-03-02T00:44:04;99028.03;;;11.05;88.49
66176;BME280;52977;44.816;20.538;2024-03-02T00:46:39;99029.47;;;10.90;88.92
66176;BME280;52977;44.816;20.538;2024-03-02T00:51:37;99024.47;;;11.05;89.02
66176;BME280;52977;44.816;20.538;2024-03-02T00:54:05;99030.41;;;11.07;88.77
66176;BME280;52977;44.816;20.538;2024-03-02T00:56:32;99024.03;;;11.03;89.10
66176;BME280;52977;44.816;20.538;2024-03-02T00:59:00;99026.19;;;10.97;89.09
66176;BME280;52977;44.816;20.538;2024-03-02T01:01:27;99024.38;;;11.01;88.85
66176;BME280;52977;44.816;20.538;2024-03-02T01:03:53;99014.22;;;10.89;89.28
66176;BME280;52977;44.816;20.538;2024-03-02T01:06:19;99021.63;;;10.89;89.64
66176;BME280;52977;44.816;20.538;2024-03-02T01:08:46;99018.78;;;10.85;89.57
66176;BME280;52977;44.816;20.538;2024-03-02T01:11:17;99020.72;;;10.85;89.92
66176;BME280;52977;44.816;20.538;2024-03-02T01:13:45;99018.22;;;10.80;90.63
66176;BME280;52977;44.816;20.538;2024-03-02T01:16:13;99021.97;;;10.87;89.78
66176;BME280;52977;44.816;20.538;2024-03-02T01:18:40;99018.09;;;10.76;90.14
66176;BME280;52977;44.816;20.538;2024-03-02T01:21:06;99022.53;;;10.81;90.21
66176;BME280;52977;44.816;20.538;2024-03-02T01:23:32;99021.97;;;10.87;89.80
66176;BME280;52977;44.816;20.538;2024-03-02T01:25:59;99010.03;;;10.92;89.80
66176;BME280;52977;44.816;20.538;2024-03-02T01:28:25;99020.94;;;10.92;89.62
66176;BME280;52977;44.816;20.538;2024-03-02T01:30:51;99009.56;;;10.77;90.51
66176;BME280;52977;44.816;20.538;2024-03-02T01:33:19;99013.56;;;10.80;90.42
66176;BME280;52977;44.816;20.538;2024-03-02T01:35:45;99008.00;;;10.89;90.03
66176;BME280;52977;44.816;20.538;2024-03-02T01:38:11;99008.34;;;10.87;89.77
66176;BME280;52977;44.816;20.538;2024-03-02T01:40:37;99006.84;;;10.90;89.78
66176;BME280;52977;44.816;20.538;2024-03-02T01:43:05;99005.59;;;10.87;90.01
66176;BME280;52977;44.816;20.538;2024-03-02T01:45:32;99000.00;;;10.84;90.27
66176;BME280;52977;44.816;20.538;2024-03-02T01:47:59;98996.84;;;10.82;90.59
66176;BME280;52977;44.816;20.538;2024-03-02T01:50:31;99000.69;;;10.81;90.37
66176;BME280;52977;44.816;20.538;2024-03-02T01:52:58;98996.03;;;10.81;89.80
66176;BME280;52977;44.816;20.538;2024-03-02T01:55:25;98980.56;;;10.85;89.94
66176;BME280;52977;44.816;20.538;2024-03-02T01:57:52;98997.84;;;10.77;90.50
66176;BME280;52977;44.816;20.538;2024-03-02T02:00:19;98985.00;;;10.77;90.24
66176;BME280;52977;44.816;20.538;2024-03-02T02:02:47;98980.13;;;10.83;90.33
66176;BME280;52977;44.816;20.538;2024-03-02T02:05:14;98985.91;;;10.82;90.27
66176;BME280;52977;44.816;20.538;2024-03-02T02:07:44;98991.47;;;10.85;90.76
66176;BME280;52977;44.816;20.538;2024-03-02T02:10:10;98987.63;;;10.86;90.75
66176;BME280;52977;44.816;20.538;2024-03-02T02:12:37;98986.38;;;10.84;90.91
66176;BME280;52977;44.816;20.538;2024-03-02T02:15:21;98992.16;;;10.82;90.39
66176;BME280;52977;44.816;20.538;2024-03-02T02:17:47;98990.91;;;10.80;90.72
66176;BME280;52977;44.816;20.538;2024-03-02T02:20:14;98991.03;;;10.83;90.90
66176;BME280;52977;44.816;20.538;2024-03-02T02:22:40;98999.22;;;10.71;91.83
66176;BME280;52977;44.816;20.538;2024-03-02T02:25:06;98992.28;;;10.61;92.58
66176;BME280;52977;44.816;20.538;2024-03-02T02:27:33;98998.63;;;10.65;92.49
66176;BME280;52977;44.816;20.538;2024-03-02T02:29:59;99002.13;;;10.53;93.97
66176;BME280;52977;44.816;20.538;2024-03-02T02:32:26;98999.78;;;10.64;93.59
66176;BME280;52977;44.816;20.538;2024-03-02T02:34:52;98994.78;;;10.66;93.23
66176;BME280;52977;44.816;20.538;2024-03-02T02:37:19;98994.31;;;10.76;93.25
66176;BME280;52977;44.816;20.538;2024-03-02T02:39:45;98996.38;;;10.55;94.69
66176;BME280;52977;44.816;20.538;2024-03-02T02:42:12;99001.69;;;10.51;94.81
66176;BME280;52977;44.816;20.538;2024-03-02T02:44:38;98998.28;;;10.54;95.02
66176;BME280;52977;44.816;20.538;2024-03-02T02:47:04;98993.63;;;10.55;95.32
66176;BME280;52977;44.816;20.538;2024-03-02T02:49:31;99001.13;;;10.58;94.97
66176;BME280;52977;44.816;20.538;2024-03-02T02:51:57;99005.56;;;10.17;97.62
66176;BME280;52977;44.816;20.538;2024-03-02T02:54:24;99001.75;;;10.30;97.52
66176;BME280;52977;44.816;20.538;2024-03-02T02:56:50;99001.47;;;10.44;97.24
66176;BME280;52977;44.816;20.538;2024-03-02T02:59:16;99008.28;;;10.50;96.66
66176;BME280;52977;44.816;20.538;2024-03-02T03:01:43;99007.03;;;10.60;95.64
66176;BME280;52977;44.816;20.538;2024-03-02T03:04:09;98996.94;;;10.60;95.71
66176;BME280;52977;44.816;20.538;2024-03-02T03:06:35;99002.50;;;10.64;95.94
66176;BME280;52977;44.816;20.538;2024-03-02T03:09:01;99003.88;;;10.58;95.96
66176;BME280;52977;44.816;20.538;2024-03-02T03:11:28;99010.69;;;10.64;95.89
66176;BME280;52977;44.816;20.538;2024-03-02T03:13:54;99006.84;;;10.65;96.13
66176;BME280;52977;44.816;20.538;2024-03-02T03:16:21;99011.16;;;10.66;96.08
66176;BME280;52977;44.816;20.538;2024-03-02T03:18:48;99004.09;;;10.65;95.93
66176;BME280;52977;44.816;20.538;2024-03-02T03:21:17;98999.56;;;10.69;95.98
66176;BME280;52977;44.816;20.538;2024-03-02T03:23:43;99010.69;;;10.64;96.18
66176;BME280;52977;44.816;20.538;2024-03-02T03:26:09;99007.97;;;10.31;98.44
66176;BME280;52977;44.816;20.538;2024-03-02T03:28:36;99014.88;;;10.49;98.40
66176;BME280;52977;44.816;20.538;2024-03-02T03:31:02;99018.41;;;10.50;98.54
66176;BME280;52977;44.816;20.538;2024-03-02T03:33:29;99010.59;;;10.60;98.12
66176;BME280;52977;44.816;20.538;2024-03-02T03:35:55;99009.66;;;10.56;98.69
66176;BME280;52977;44.816;20.538;2024-03-02T03:38:22;99020.69;;;10.60;98.64
66176;BME280;52977;44.816;20.538;2024-03-02T03:40:48;99020.56;;;10.44;100.00
66176;BME280;52977;44.816;20.538;2024-03-02T03:43:14;99018.06;;;10.51;100.00
66176;BME280;52977;44.816;20.538;2024-03-02T03:45:40;99031.50;;;10.56;100.00
66176;BME280;52977;44.816;20.538;2024-03-02T03:48:07;99032.28;;;10.57;100.00
66176;BME280;52977;44.816;20.538;2024-03-02T03:50:34;99030.69;;;10.56;100.00
66176;BME280;52977;44.816;20.538;2024-03-02T03:53:00;99040.47;;;10.57;100.00
66176;BME280;52977;44.816;20.538;2024-03-02T03:55:26;99036.28;;;10.59;100.00
66176;BME280;52977;44.816;20.538;2024-03-02T03:57:52;99042.31;;;10.65;100.00
66176;BME280;52977;44.816;20.538;2024-03-02T04:00:19;99040.28;;;10.62;100.00
66176;BME280;52977;44.816;20.538;2024-03-02T04:02:44;99040.22;;;10.50;100.00
66176;BME280;52977;44.816;20.538;2024-03-02T04:05:11;99046.63;;;10.54;100.00
66176;BME280;52977;44.816;20.538;2024-03-02T04:07:37;99042.41;;;10.56;100.00
66176;BME280;52977;44.816;20.538;2024-03-02T04:10:07;99036.03;;;10.52;100.00
66176;BME280;52977;44.816;20.538;2024-03-02T04:12:35;99048.44;;;10.50;100.00
66176;BME280;52977;44.816;20.538;2024-03-02T04:15:06;99050.94;;;10.00;100.00
66176;BME280;52977;44.816;20.538;2024-03-02T04:17:33;99052.41;;;10.19;100.00
66176;BME280;52977;44.816;20.538;2024-03-02T04:19:59;99047.44;;;10.33;100.00
66176;BME280;52977;44.816;20.538;2024-03-02T04:22:27;99050.94;;;10.34;100.00
66176;BME280;52977;44.816;20.538;2024-03-02T04:24:53;99053.38;;;10.35;100.00
66176;BME280;52977;44.816;20.538;2024-03-02T04:27:20;99057.34;;;10.38;100.00
66176;BME280;52977;44.816;20.538;2024-03-02T04:29:46;99048.28;;;10.46;100.00
66176;BME280;52977;44.816;20.538;2024-03-02T04:32:13;99053.28;;;10.44;100.00
66176;BME280;52977;44.816;20.538;2024-03-02T04:34:38;99057.69;;;10.36;100.00
66176;BME280;52977;44.816;20.538;2024-03-02T04:37:05;99060.09;;;10.38;100.00
66176;BME280;52977;44.816;20.538;2024-03-02T04:39:31;99073.09;;;10.32;100.00
66176;BME280;52977;44.816;20.538;2024-03-02T04:41:57;99064.75;;;10.37;100.00
66176;BME280;52977;44.816;20.538;2024-03-02T04:44:24;99066.69;;;10.37;100.00
66176;BME280;52977;44.816;20.538;2024-03-02T04:46:50;99058.81;;;10.35;100.00
66176;BME280;52977;44.816;20.538;2024-03-02T04:49:16;99066.63;;;10.24;100.00
66176;BME280;52977;44.816;20.538;2024-03-02T04:51:43;99064.47;;;10.30;100.00
66176;BME280;52977;44.816;20.538;2024-03-02T04:54:09;99065.00;;;10.23;100.00
66176;BME280;52977;44.816;20.538;2024-03-02T04:56:36;99073.72;;;10.17;100.00
66176;BME280;52977;44.816;20.538;2024-03-02T04:59:10;99066.47;;;10.21;100.00
66176;BME280;52977;44.816;20.538;2024-03-02T05:01:37;99066.03;;;10.19;100.00
66176;BME280;52977;44.816;20.538;2024-03-02T05:04:03;99066.22;;;9.50;100.00
66176;BME280;52977;44.816;20.538;2024-03-02T05:06:29;99071.16;;;9.78;100.00
66176;BME280;52977;44.816;20.538;2024-03-02T05:08:56;99072.41;;;10.02;100.00
66176;BME280;52977;44.816;20.538;2024-03-02T05:11:22;99075.63;;;10.04;100.00
66176;BME280;52977;44.816;20.538;2024-03-02T05:14:05;99073.91;;;9.99;100.00
66176;BME280;52977;44.816;20.538;2024-03-02T05:16:36;99079.38;;;10.12;100.00
66176;BME280;52977;44.816;20.538;2024-03-02T05:19:06;99080.31;;;10.16;100.00
66176;BME280;52977;44.816;20.538;2024-03-02T05:21:33;99091.56;;;10.14;100.00
66176;BME280;52977;44.816;20.538;2024-03-02T05:24:00;99082.66;;;10.05;100.00
66176;BME280;52977;44.816;20.538;2024-03-02T05:26:26;99091.78;;;10.09;100.00
66176;BME280;52977;44.816;20.538;2024-03-02T05:28:53;99079.34;;;9.99;100.00
66176;BME280;52977;44.816;20.538;2024-03-02T05:31:19;99090.84;;;10.05;100.00
66176;BME280;52977;44.816;20.538;2024-03-02T05:33:45;99081.09;;;9.53;100.00
66176;BME280;52977;44.816;20.538;2024-03-02T05:36:11;99090.22;;;9.57;100.00
66176;BME280;52977;44.816;20.538;2024-03-02T05:38:38;99078.28;;;9.70;100.00
66176;BME280;52977;44.816;20.538;2024-03-02T05:41:04;99095.75;;;9.69;100.00
66176;BME280;52977;44.816;20.538;2024-03-02T05:43:31;99091.97;;;9.83;100.00
66176;BME280;52977;44.816;20.538;2024-03-02T05:45:57;99099.75;;;9.72;100.00
66176;BME280;52977;44.816;20.538;2024-03-02T05:48:23;99114.78;;;9.48;100.00
66176;BME280;52977;44.816;20.538;2024-03-02T05:50:48;99102.94;;;9.74;100.00
66176;BME280;52977;44.816;20.538;2024-03-02T05:53:14;99108.66;;;9.81;100.00
66176;BME280;52977;44.816;20.538;2024-03-02T05:55:41;99115.50;;;9.87;100.00
66176;BME280;52977;44.816;20.538;2024-03-02T05:58:08;99129.13;;;9.87;100.00
66176;BME280;52977;44.816;20.538;2024-03-02T06:00:52;99115.06;;;9.85;100.00
66176;BME280;52977;44.816;20.538;2024-03-02T06:03:20;99130.06;;;9.91;100.00
66176;BME280;52977;44.816;20.538;2024-03-02T06:05:47;99119.78;;;9.97;100.00
66176;BME280;52977;44.816;20.538;2024-03-02T06:08:15;99119.56;;;10.02;100.00
66176;BME280;52977;44.816;20.538;2024-03-02T06:10:41;99125.81;;;10.03;100.00
66176;BME280;52977;44.816;20.538;2024-03-02T06:13:07;99120.25;;;9.99;100.00
66176;BME280;52977;44.816;20.538;2024-03-02T06:15:34;99129.22;;;10.00;100.00
66176;BME280;52977;44.816;20.538;2024-03-02T06:18:02;99128.44;;;9.99;100.00
66176;BME280;52977;44.816;20.538;2024-03-02T06:20:28;99126.50;;;10.00;100.00
66176;BME280;52977;44.816;20.538;2024-03-02T06:22:57;99129.66;;;10.02;100.00
66176;BME280;52977;44.816;20.538;2024-03-02T06:25:23;99127.09;;;10.05;100.00
66176;BME280;52977;44.816;20.538;2024-03-02T06:27:49;99125.97;;;10.06;100.00
66176;BME280;52977;44.816;20.538;2024-03-02T06:30:16;99125.28;;;10.09;100.00
66176;BME280;52977;44.816;20.538;2024-03-02T06:32:42;99131.69;;;10.14;100.00
66176;BME280;52977;44.816;20.538;2024-03-02T06:35:08;99131.00;;;10.17;100.00
66176;BME280;52977;44.816;20.538;2024-03-02T06:37:37;99138.41;;;10.16;100.00
66176;BME280;52977;44.816;20.538;2024-03-02T06:40:04;99134.41;;;10.14;100.00
66176;BME280;52977;44.816;20.538;2024-03-02T06:42:34;99145.47;;;10.17;100.00
66176;BME280;52977;44.816;20.538;2024-03-02T06:45:01;99139.00;;;10.22;100.00
66176;BME280;52977;44.816;20.538;2024-03-02T06:47:28;99138.22;;;10.21;100.00
66176;BME280;52977;44.816;20.538;2024-03-02T06:49:54;99139.53;;;10.15;100.00
66176;BME280;52977;44.816;20.538;2024-03-02T06:52:19;99148.84;;;10.14;100.00
66176;BME280;52977;44.816;20.538;2024-03-02T06:54:47;99157.75;;;10.02;100.00
66176;BME280;52977;44.816;20.538;2024-03-02T06:57:13;99148.97;;;10.18;100.00
66176;BME280;52977;44.816;20.538;2024-03-02T06:59:39;99154.03;;;10.28;100.00
66176;BME280;52977;44.816;20.538;2024-03-02T07:02:05;99150.03;;;10.25;100.00
66176;BME280;52977;44.816;20.538;2024-03-02T07:04:32;99160.63;;;10.27;100.00
66176;BME280;52977;44.816;20.538;2024-03-02T07:06:58;99148.91;;;10.26;100.00
66176;BME280;52977;44.816;20.538;2024-03-02T07:09:25;99158.19;;;10.34;100.00
66176;BME280;52977;44.816;20.538;2024-03-02T07:11:51;99160.06;;;10.34;99.86
66176;BME280;52977;44.816;20.538;2024-03-02T07:14:18;99165.59;;;10.25;100.00
66176;BME280;52977;44.816;20.538;2024-03-02T07:16:44;99157.91;;;10.27;99.66
66176;BME280;52977;44.816;20.538;2024-03-02T07:19:11;99162.69;;;10.30;100.00
66176;BME280;52977;44.816;20.538;2024-03-02T07:21:37;99164.47;;;10.26;99.89
66176;BME280;52977;44.816;20.538;2024-03-02T07:24:05;99160.41;;;10.32;100.00
66176;BME280;52977;44.816;20.538;2024-03-02T07:26:32;99167.81;;;10.32;99.80
66176;BME280;52977;44.816;20.538;2024-03-02T07:28:58;99168.34;;;10.46;99.56
66176;BME280;52977;44.816;20.538;2024-03-02T07:31:25;99168.00;;;10.48;98.39
66176;BME280;52977;44.816;20.538;2024-03-02T07:33:51;99167.09;;;10.43;99.26
66176;BME280;52977;44.816;20.538;2024-03-02T07:36:19;99167.81;;;10.53;98.17
66176;BME280;52977;44.816;20.538;2024-03-02T07:38:45;99169.28;;;10.50;97.20
66176;BME280;52977;44.816;20.538;2024-03-02T07:41:11;99169.88;;;10.56;98.14
66176;BME280;52977;44.816;20.538;2024-03-02T07:43:38;99173.06;;;10.58;98.06
66176;BME280;52977;44.816;20.538;2024-03-02T07:46:04;99176.72;;;10.62;97.30
66176;BME280;52977;44.816;20.538;2024-03-02T07:48:32;99169.91;;;10.68;96.55
66176;BME280;52977;44.816;20.538;2024-03-02T07:50:58;99177.06;;;10.60;95.95
66176;BME280;52977;44.816;20.538;2024-03-02T07:53:24;99169.91;;;10.68;95.05
66176;BME280;52977;44.816;20.538;2024-03-02T07:55:51;99175.56;;;10.63;96.39
66176;BME280;52977;44.816;20.538;2024-03-02T07:58:17;99180.84;;;10.68;96.42
66176;BME280;52977;44.816;20.538;2024-03-02T08:00:45;99184.69;;;10.67;96.22
66176;BME280;52977;44.816;20.538;2024-03-02T08:03:11;99193.69;;;10.68;95.66
66176;BME280;52977;44.816;20.538;2024-03-02T08:05:37;99187.41;;;10.67;95.61
66176;BME280;52977;44.816;20.538;2024-03-02T08:08:05;99205.16;;;10.61;95.68
66176;BME280;52977;44.816;20.538;2024-03-02T08:10:31;99195.63;;;10.67;95.91
66176;BME280;52977;44.816;20.538;2024-03-02T08:12:59;99192.97;;;10.58;96.25
66176;BME280;52977;44.816;20.538;2024-03-02T08:15:25;99187.41;;;10.67;95.44
66176;BME280;52977;44.816;20.538;2024-03-02T08:17:52;99187.91;;;10.69;94.73
66176;BME280;52977;44.816;20.538;2024-03-02T08:20:18;99181.63;;;10.69;94.69
66176;BME280;52977;44.816;20.538;2024-03-02T08:22:45;99187.41;;;10.67;95.12
66176;BME280;52977;44.816;20.538;2024-03-02T08:25:11;99194.88;;;10.79;94.50
66176;BME280;52977;44.816;20.538;2024-03-02T08:27:39;99187.47;;;10.80;94.50
66176;BME280;52977;44.816;20.538;2024-03-02T08:30:06;99188.06;;;10.85;93.88
66176;BME280;52977;44.816;20.538;2024-03-02T08:32:34;99191.59;;;10.86;94.05
66176;BME280;52977;44.816;20.538;2024-03-02T08:35:00;99191.03;;;10.92;93.61
66176;BME280;52977;44.816;20.538;2024-03-02T08:37:26;99195.91;;;10.87;92.72
66176;BME280;52977;44.816;20.538;2024-03-02T08:39:53;99198.38;;;11.13;95.91
66176;BME280;52977;44.816;20.538;2024-03-02T08:42:20;99196.81;;;11.24;93.39
66176;BME280;52977;44.816;20.538;2024-03-02T08:44:46;99199.88;;;11.23;91.66
66176;BME280;52977;44.816;20.538;2024-03-02T08:47:13;99200.41;;;11.04;93.24
66176;BME280;52977;44.816;20.538;2024-03-02T08:49:39;99208.19;;;11.14;93.22
66176;BME280;52977;44.816;20.538;2024-03-02T08:52:06;99200.34;;;11.25;92.07
66176;BME280;52977;44.816;20.538;2024-03-02T08:54:32;99198.28;;;11.22;91.60
66176;BME280;52977;44.816;20.538;2024-03-02T08:56:59;99192.72;;;11.31;91.20
66176;BME280;52977;44.816;20.538;2024-03-02T08:59:26;99203.13;;;11.37;91.43
66176;BME280;52977;44.816;20.538;2024-03-02T09:01:53;99201.41;;;11.57;93.12
66176;BME280;52977;44.816;20.538;2024-03-02T09:04:20;99200.50;;;11.78;93.47
66176;BME280;52977;44.816;20.538;2024-03-02T09:06:46;99204.97;;;11.95;90.70
66176;BME280;52977;44.816;20.538;2024-03-02T09:09:13;99207.47;;;12.00;89.49
66176;BME280;52977;44.816;20.538;2024-03-02T09:11:39;99222.06;;;12.04;88.67
66176;BME280;52977;44.816;20.538;2024-03-02T09:14:06;99219.44;;;12.08;87.51
66176;BME280;52977;44.816;20.538;2024-03-02T09:16:32;99225.59;;;12.05;87.46
66176;BME280;52977;44.816;20.538;2024-03-02T09:18:58;99218.41;;;12.00;87.57
66176;BME280;52977;44.816;20.538;2024-03-02T09:21:24;99225.59;;;12.05;86.87
66176;BME280;52977;44.816;20.538;2024-03-02T09:23:51;99228.66;;;12.03;87.10
66176;BME280;52977;44.816;20.538;2024-03-02T09:26:17;99218.06;;;12.14;88.26
66176;BME280;52977;44.816;20.538;2024-03-02T09:28:45;99229.09;;;12.30;86.67
66176;BME280;52977;44.816;20.538;2024-03-02T09:31:12;99227.47;;;12.41;86.43
66176;BME280;52977;44.816;20.538;2024-03-02T09:33:38;99230.16;;;12.54;85.33
66176;BME280;52977;44.816;20.538;2024-03-02T09:36:05;99226.03;;;12.60;84.83
66176;BME280;52977;44.816;20.538;2024-03-02T09:38:34;99216.69;;;12.61;84.15
66176;BME280;52977;44.816;20.538;2024-03-02T09:41:00;99214.50;;;12.67;84.77
66176;BME280;52977;44.816;20.538;2024-03-02T09:43:27;99217.88;;;12.76;84.96
66176;BME280;52977;44.816;20.538;2024-03-02T09:45:53;99217.06;;;12.75;84.46
66176;BME280;52977;44.816;20.538;2024-03-02T09:48:19;99217.78;;;12.31;86.11
66176;BME280;52977;44.816;20.538;2024-03-02T09:50:46;99225.09;;;12.68;86.17
66176;BME280;52977;44.816;20.538;2024-03-02T09:53:13;99217.31;;;12.98;84.86
66176;BME280;52977;44.816;20.538;2024-03-02T09:55:40;99213.75;;;13.10;84.07
66176;BME280;52977;44.816;20.538;2024-03-02T09:58:09;99220.38;;;13.09;83.69
66176;BME280;52977;44.816;20.538;2024-03-02T10:00:35;99228.66;;;13.13;83.08
66176;BME280;52977;44.816;20.538;2024-03-02T10:03:00;99235.75;;;13.14;82.77
66176;BME280;52977;44.816;20.538;2024-03-02T10:05:27;99233.00;;;13.14;82.93
66176;BME280;52977;44.816;20.538;2024-03-02T10:08:01;99224.19;;;13.21;83.08
66176;BME280;52977;44.816;20.538;2024-03-02T10:10:38;99231.06;;;13.14;82.34
66176;BME280;52977;44.816;20.538;2024-03-02T10:13:12;99229.28;;;13.06;82.55
66176;BME280;52977;44.816;20.538;2024-03-02T10:15:40;99224.47;;;12.87;83.20
66176;BME280;52977;44.816;20.538;2024-03-02T10:18:10;99226.66;;;12.81;83.21
66176;BME280;52977;44.816;20.538;2024-03-02T10:20:38;99225.28;;;12.75;83.93
66176;BME280;52977;44.816;20.538;2024-03-02T10:23:11;99225.44;;;12.67;84.22
66176;BME280;52977;44.816;20.538;2024-03-02T10:25:38;99222.28;;;12.64;84.35
66176;BME280;52977;44.816;20.538;2024-03-02T10:28:05;99217.34;;;12.70;84.39
66176;BME280;52977;44.816;20.538;2024-03-02T10:30:33;99212.59;;;12.83;84.09
66176;BME280;52977;44.816;20.538;2024-03-02T10:33:01;99212.78;;;12.90;84.01
66176;BME280;52977;44.816;20.538;2024-03-02T10:35:28;99222.03;;;12.98;83.24
66176;BME280;52977;44.816;20.538;2024-03-02T10:37:55;99217.78;;;13.01;84.11
66176;BME280;52977;44.816;20.538;2024-03-02T10:40:22;99201.53;;;13.08;83.62
66176;BME280;52977;44.816;20.538;2024-03-02T10:42:52;99206.31;;;13.11;83.03
66176;BME280;52977;44.816;20.538;2024-03-02T10:45:20;99206.84;;;13.16;82.31
66176;BME280;52977;44.816;20.538;2024-03-02T10:48:06;99206.75;;;13.13;82.54
66176;BME280;52977;44.816;20.538;2024-03-02T10:50:33;99211.44;;;13.12;82.77
66176;BME280;52977;44.816;20.538;2024-03-02T10:52:59;99208.09;;;13.19;82.32
66176;BME280;52977;44.816;20.538;2024-03-02T10:55:26;99213.22;;;13.21;82.39
66176;BME280;52977;44.816;20.538;2024-03-02T10:57:53;99207.72;;;13.21;81.87
66176;BME280;52977;44.816;20.538;2024-03-02T11:00:20;99201.72;;;13.31;81.61
66176;BME280;52977;44.816;20.538;2024-03-02T11:02:56;99202.97;;;13.33;81.50
66176;BME280;52977;44.816;20.538;2024-03-02T11:05:34;99205.38;;;13.35;81.07
66176;BME280;52977;44.816;20.538;2024-03-02T11:08:06;99195.66;;;13.38;81.25
66176;BME280;52977;44.816;20.538;2024-03-02T11:11:01;99191.59;;;13.03;82.02
66176;BME280;52977;44.816;20.538;2024-03-02T11:13:32;99197.72;;;13.12;82.27
66176;BME280;52977;44.816;20.538;2024-03-02T11:16:32;99195.72;;;13.25;82.21
66176;BME280;52977;44.816;20.538;2024-03-02T11:19:05;99189.44;;;13.25;82.12
66176;BME280;52977;44.816;20.538;2024-03-02T11:21:36;99193.84;;;13.29;82.17
66176;BME280;52977;44.816;20.538;2024-03-02T11:26:47;99198.22;;;13.46;81.13
66176;BME280;52977;44.816;20.538;2024-03-02T11:32:03;99192.31;;;13.44;81.50
66176;BME280;52977;44.816;20.538;2024-03-02T11:34:36;99188.94;;;13.51;80.77
66176;BME280;52977;44.816;20.538;2024-03-02T11:37:05;99190.72;;;13.59;80.15
66176;BME280;52977;44.816;20.538;2024-03-02T11:39:32;99197.69;;;13.73;79.68
66176;BME280;52977;44.816;20.538;2024-03-02T11:42:00;99195.28;;;13.71;79.46
66176;BME280;52977;44.816;20.538;2024-03-02T11:44:27;99197.16;;;13.67;80.15
66176;BME280;52977;44.816;20.538;2024-03-02T11:47:05;99200.72;;;13.67;79.90
66176;BME280;52977;44.816;20.538;2024-03-02T11:49:44;99197.97;;;13.52;80.28
66176;BME280;52977;44.816;20.538;2024-03-02T11:52:14;99194.72;;;13.62;80.30
66176;BME280;52977;44.816;20.538;2024-03-02T11:54:42;99190.25;;;13.73;79.34
66176;BME280;52977;44.816;20.538;2024-03-02T11:57:18;99190.22;;;13.89;79.08
66176;BME280;52977;44.816;20.538;2024-03-02T11:59:53;99189.84;;;14.07;77.91
66176;BME280;52977;44.816;20.538;2024-03-02T12:02:21;99187.75;;;13.84;79.45
66176;BME280;52977;44.816;20.538;2024-03-02T12:04:48;99189.84;;;13.55;79.74
66176;BME280;52977;44.816;20.538;2024-03-02T12:07:24;99182.63;;;13.82;79.28
66176;BME280;52977;44.816;20.538;2024-03-02T12:10:01;99176.91;;;14.07;78.47
66176;BME280;52977;44.816;20.538;2024-03-02T12:12:29;99173.34;;;13.71;79.08
66176;BME280;52977;44.816;20.538;2024-03-02T12:14:55;99174.34;;;13.79;79.04
66176;BME280;52977;44.816;20.538;2024-03-02T12:17:22;99179.78;;;13.95;79.07
66176;BME280;52977;44.816;20.538;2024-03-02T12:19:49;99187.94;;;13.75;78.65
66176;BME280;52977;44.816;20.538;2024-03-02T12:22:15;99171.94;;;13.77;79.33
66176;BME280;52977;44.816;20.538;2024-03-02T12:24:42;99172.66;;;14.10;77.19
66176;BME280;52977;44.816;20.538;2024-03-02T12:27:12;99176.50;;;13.89;78.67
66176;BME280;52977;44.816;20.538;2024-03-02T12:29:39;99178.84;;;13.87;79.00
66176;BME280;52977;44.816;20.538;2024-03-02T12:32:06;99176.72;;;13.80;79.58
66176;BME280;52977;44.816;20.538;2024-03-02T12:34:32;99180.91;;;14.10;78.47
66176;BME280;52977;44.816;20.538;2024-03-02T12:36:59;99183.19;;;14.43;77.26
66176;BME280;52977;44.816;20.538;2024-03-02T12:39:25;99175.31;;;14.81;75.61
66176;BME280;52977;44.816;20.538;2024-03-02T12:41:53;99182.13;;;15.10;74.71
66176;BME280;52977;44.816;20.538;2024-03-02T12:44:20;99185.81;;;15.41;73.56
66176;BME280;52977;44.816;20.538;2024-03-02T12:46:46;99177.53;;;15.18;73.19
66176;BME280;52977;44.816;20.538;2024-03-02T12:49:14;99185.19;;;15.51;72.04
66176;BME280;52977;44.816;20.538;2024-03-02T12:51:46;99186.31;;;15.73;70.73
66176;BME280;52977;44.816;20.538;2024-03-02T12:54:17;99178.25;;;15.84;70.12
66176;BME280;52977;44.816;20.538;2024-03-02T12:56:44;99177.75;;;15.52;71.35
66176;BME280;52977;44.816;20.538;2024-03-02T12:59:19;99179.19;;;14.99;72.77
66176;BME280;52977;44.816;20.538;2024-03-02T13:01:53;99178.56;;;14.86;73.29